createdAt,value
2022-12-08T00:00:54.473Z,8.83
2022-12-08T00:03:21.425Z,3.75
2022-12-08T00:06:08.311Z,8.60
2022-12-08T00:08:53.886Z,4.50
2022-12-08T00:11:20.710Z,3.30
2022-12-08T00:13:47.457Z,3.70
2022-12-08T00:16:14.317Z,5.95
2022-12-08T00:18:41.231Z,5.75
2022-12-08T00:21:07.982Z,5.10
2022-12-08T00:23:34.819Z,4.00
2022-12-08T00:26:03.910Z,4.57
2022-12-08T00:28:32.498Z,4.35
2022-12-08T00:30:59.842Z,4.85
2022-12-08T00:33:28.836Z,6.50
2022-12-08T00:35:55.596Z,7.35
2022-12-08T00:38:22.470Z,7.40
2022-12-08T00:40:49.273Z,7.28
2022-12-08T00:43:16.227Z,4.15
2022-12-08T00:45:43.744Z,8.30
2022-12-08T00:48:10.599Z,5.22
2022-12-08T00:50:37.398Z,7.20
2022-12-08T00:53:04.228Z,5.97
2022-12-08T00:55:31.106Z,5.80
2022-12-08T00:57:57.951Z,4.57
2022-12-08T01:00:24.761Z,7.78
2022-12-08T01:02:51.626Z,8.53
2022-12-08T01:05:18.540Z,5.78
2022-12-08T01:07:45.560Z,4.82
2022-12-08T01:10:12.424Z,8.75
2022-12-08T01:12:39.177Z,7.35
2022-12-08T01:15:06.368Z,6.63
2022-12-08T01:17:33.300Z,4.75
2022-12-08T01:20:02.599Z,5.90
2022-12-08T01:22:29.633Z,5.63
2022-12-08T01:24:56.514Z,5.93
2022-12-08T01:27:23.312Z,5.67
2022-12-08T01:29:50.065Z,6.47
2022-12-08T01:32:16.817Z,7.18
2022-12-08T01:34:43.584Z,5.35
2022-12-08T01:37:12.696Z,4.30
2022-12-08T01:39:41.378Z,5.93
2022-12-08T01:42:21.093Z,4.00
2022-12-08T01:44:54.085Z,8.60
2022-12-08T01:47:22.704Z,3.97
2022-12-08T01:49:49.673Z,4.70
2022-12-08T01:52:22.573Z,4.20
2022-12-08T01:55:06.281Z,5.60
2022-12-08T01:57:47.322Z,4.10
2022-12-08T02:00:17.369Z,3.85
2022-12-08T02:03:07.441Z,4.43
2022-12-08T02:05:37.937Z,2.90
2022-12-08T02:08:08.659Z,2.60
2022-12-08T02:10:38.971Z,4.63
2022-12-08T02:13:09.655Z,3.00
2022-12-08T02:15:40.502Z,3.97
2022-12-08T02:18:29.109Z,3.20
2022-12-08T02:21:25.082Z,5.53
2022-12-08T02:24:00.865Z,3.53
2022-12-08T02:26:39.929Z,3.60
2022-12-08T02:29:48.270Z,3.28
2022-12-08T02:32:36.642Z,6.20
2022-12-08T02:35:12.428Z,3.67
2022-12-08T02:37:47.980Z,4.65
2022-12-08T02:40:34.834Z,3.85
2022-12-08T02:43:12.667Z,4.07
2022-12-08T02:45:44.378Z,6.50
2022-12-08T02:48:11.239Z,5.13
2022-12-08T02:50:38.036Z,4.03
2022-12-08T02:55:46.327Z,4.07
2022-12-08T02:58:22.373Z,3.83
2022-12-08T03:01:09.754Z,5.22
2022-12-08T03:04:00.306Z,5.60
2022-12-08T03:06:42.159Z,4.60
2022-12-08T03:09:12.143Z,3.90
2022-12-08T03:11:52.634Z,3.80
2022-12-08T03:14:21.809Z,4.50
2022-12-08T03:16:52.893Z,3.85
2022-12-08T03:19:32.745Z,4.55
2022-12-08T03:22:03.641Z,4.78
2022-12-08T03:24:39.036Z,3.83
2022-12-08T03:27:19.743Z,7.65
2022-12-08T03:29:49.057Z,4.45
2022-12-08T03:32:21.623Z,4.13
2022-12-08T03:34:50.544Z,3.80
2022-12-08T03:37:17.488Z,3.33
2022-12-08T03:39:44.629Z,3.53
2022-12-08T03:42:11.663Z,2.97
2022-12-08T03:44:38.412Z,3.83
2022-12-08T03:47:05.616Z,2.53
2022-12-08T03:49:32.503Z,4.63
2022-12-08T03:51:59.303Z,2.97
2022-12-08T03:54:26.043Z,2.83
2022-12-08T03:56:52.987Z,3.08
2022-12-08T03:59:19.752Z,3.05
2022-12-08T04:01:46.592Z,2.83
2022-12-08T04:04:13.389Z,2.63
2022-12-08T04:06:40.259Z,4.38
2022-12-08T04:09:07.073Z,0.88
2022-12-08T04:11:33.885Z,2.05
2022-12-08T04:14:00.617Z,0.77
2022-12-08T04:16:28.137Z,0.82
2022-12-08T04:18:55.143Z,1.25
2022-12-08T04:21:22.434Z,2.20
2022-12-08T04:23:49.413Z,1.20
2022-12-08T04:26:16.703Z,1.60
2022-12-08T04:28:43.972Z,2.25
2022-12-08T04:31:11.146Z,1.83
2022-12-08T04:33:38.447Z,1.60
2022-12-08T04:36:06.789Z,1.20
2022-12-08T04:38:34.508Z,0.60
2022-12-08T04:41:01.657Z,1.35
2022-12-08T04:43:28.691Z,3.58
2022-12-08T04:45:55.493Z,2.38
2022-12-08T04:48:22.400Z,0.90
2022-12-08T04:50:49.318Z,2.47
2022-12-08T04:53:16.303Z,2.58
2022-12-08T04:55:45.287Z,5.13
2022-12-08T04:58:14.243Z,2.42
2022-12-08T05:00:42.127Z,2.72
2022-12-08T05:03:09.487Z,3.10
2022-12-08T05:05:36.410Z,1.92
2022-12-08T05:08:03.686Z,2.67
2022-12-08T05:10:30.762Z,2.58
2022-12-08T05:12:58.997Z,2.00
2022-12-08T05:15:25.968Z,2.00
2022-12-08T05:17:52.983Z,1.88
2022-12-08T05:20:19.839Z,1.90
2022-12-08T05:22:46.878Z,1.60
2022-12-08T05:25:13.681Z,2.60
2022-12-08T05:27:40.568Z,1.40
2022-12-08T05:30:07.830Z,1.48
2022-12-08T05:32:34.777Z,2.17
2022-12-08T05:35:01.624Z,1.00
2022-12-08T05:37:28.512Z,1.48
2022-12-08T05:39:55.366Z,1.50
2022-12-08T05:42:24.973Z,1.92
2022-12-08T05:44:52.601Z,1.98
2022-12-08T05:47:19.593Z,1.50
2022-12-08T05:49:46.577Z,3.40
2022-12-08T05:52:13.487Z,2.07
2022-12-08T05:54:40.285Z,1.38
2022-12-08T05:57:07.133Z,2.17
2022-12-08T05:59:33.909Z,2.60
2022-12-08T06:02:00.810Z,0.82
2022-12-08T06:04:27.791Z,1.80
2022-12-08T06:06:54.662Z,2.67
2022-12-08T06:09:22.038Z,2.85
2022-12-08T06:11:48.848Z,1.17
2022-12-08T06:14:15.629Z,1.10
2022-12-08T06:16:42.527Z,0.67
2022-12-08T06:19:09.831Z,2.47
2022-12-08T06:21:36.855Z,2.88
2022-12-08T06:24:03.746Z,2.70
2022-12-08T06:26:30.599Z,5.70
2022-12-08T06:28:57.440Z,0.43
2022-12-08T06:31:26.550Z,0.60
2022-12-08T06:33:55.483Z,1.25
2022-12-08T06:36:24.930Z,1.05
2022-12-08T06:38:52.086Z,3.05
2022-12-08T06:41:19.293Z,1.37
2022-12-08T06:43:46.762Z,4.22
2022-12-08T06:46:16.851Z,1.40
2022-12-08T06:48:44.082Z,3.53
2022-12-08T06:51:17.349Z,1.90
2022-12-08T06:53:45.862Z,0.60
2022-12-08T06:56:14.148Z,1.15
2022-12-08T06:58:40.964Z,1.45
2022-12-08T07:01:10.842Z,1.42
2022-12-08T07:03:38.914Z,1.30
2022-12-08T07:06:06.874Z,1.47
2022-12-08T07:08:35.079Z,0.40
2022-12-08T07:11:14.115Z,2.05
2022-12-08T07:13:43.622Z,1.10
2022-12-08T07:16:12.107Z,1.10
2022-12-08T07:18:39.769Z,0.90
2022-12-08T07:21:11.566Z,1.88
2022-12-08T07:23:39.499Z,1.80
2022-12-08T07:26:10.998Z,2.15
2022-12-08T07:28:39.845Z,1.80
2022-12-08T07:31:08.279Z,2.17
2022-12-08T07:33:36.292Z,1.67
2022-12-08T07:36:06.683Z,2.05
2022-12-08T07:38:34.204Z,2.13
2022-12-08T07:41:01.650Z,2.67
2022-12-08T07:43:28.616Z,2.07
2022-12-08T07:45:55.570Z,2.30
2022-12-08T07:48:22.584Z,2.90
2022-12-08T07:50:49.499Z,3.08
2022-12-08T07:53:16.578Z,3.67
2022-12-08T07:55:44.958Z,2.83
2022-12-08T07:58:12.005Z,2.25
2022-12-08T08:00:39.077Z,4.00
2022-12-08T08:03:06.450Z,2.63
2022-12-08T08:05:33.388Z,2.03
2022-12-08T08:08:00.270Z,2.87
2022-12-08T08:10:27.079Z,1.75
2022-12-08T08:12:53.904Z,3.45
2022-12-08T08:15:21.483Z,2.35
2022-12-08T08:17:52.018Z,2.38
2022-12-08T08:20:19.653Z,2.70
2022-12-08T08:22:47.663Z,1.75
2022-12-08T08:25:15.750Z,2.83
2022-12-08T08:27:42.961Z,3.00
2022-12-08T08:30:16.591Z,1.77
2022-12-08T08:32:46.952Z,2.67
2022-12-08T08:35:13.849Z,1.25
2022-12-08T08:37:45.585Z,1.10
2022-12-08T08:40:15.369Z,1.63
2022-12-08T08:42:42.167Z,1.33
2022-12-08T08:45:09.268Z,0.93
2022-12-08T08:47:36.116Z,1.10
2022-12-08T08:50:04.292Z,2.17
2022-12-08T08:52:31.387Z,1.33
2022-12-08T08:54:58.272Z,1.42
2022-12-08T08:57:26.021Z,1.73
2022-12-08T08:59:54.112Z,1.67
2022-12-08T09:02:21.856Z,3.47
2022-12-08T09:04:48.875Z,1.58
2022-12-08T09:07:16.189Z,1.33
2022-12-08T09:09:43.179Z,0.83
2022-12-08T09:12:10.662Z,0.80
2022-12-08T09:14:37.448Z,0.70
2022-12-08T09:17:05.170Z,2.35
2022-12-08T09:19:32.048Z,1.77
2022-12-08T09:21:58.912Z,0.80
2022-12-08T09:24:25.743Z,0.93
2022-12-08T09:26:52.627Z,2.30
2022-12-08T09:29:19.507Z,1.48
2022-12-08T09:31:46.376Z,0.57
2022-12-08T09:34:13.371Z,3.07
2022-12-08T09:36:40.615Z,0.80
2022-12-08T09:39:07.796Z,1.30
2022-12-08T09:41:50.118Z,0.77
2022-12-08T09:44:59.973Z,0.88
2022-12-08T09:47:30.605Z,0.80
2022-12-08T09:50:12.386Z,1.10
2022-12-08T09:53:09.730Z,3.25
2022-12-08T09:55:53.910Z,1.40
2022-12-08T09:58:20.920Z,1.85
2022-12-08T10:00:47.949Z,3.87
2022-12-08T10:03:16.890Z,2.95
2022-12-08T10:06:21.036Z,1.55
2022-12-08T10:09:23.174Z,0.85
2022-12-08T10:12:01.017Z,1.50
2022-12-08T10:14:47.623Z,0.93
2022-12-08T10:17:25.595Z,1.45
2022-12-08T10:20:18.276Z,0.77
2022-12-08T10:22:49.215Z,1.13
2022-12-08T10:25:35.487Z,1.33
2022-12-08T10:28:02.453Z,1.60
2022-12-08T10:30:31.445Z,1.55
2022-12-08T10:32:58.780Z,0.80
2022-12-08T10:35:42.636Z,1.23
2022-12-08T10:38:17.843Z,1.17
2022-12-08T10:40:47.077Z,1.13
2022-12-08T10:43:23.484Z,3.58
2022-12-08T10:45:50.390Z,1.45
2022-12-08T10:48:21.385Z,1.98
2022-12-08T10:50:50.839Z,1.55
2022-12-08T10:53:29.530Z,0.90
2022-12-08T10:56:04.321Z,1.05
2022-12-08T10:58:41.095Z,0.65
2022-12-08T11:01:20.441Z,1.05
2022-12-08T11:03:52.892Z,0.88
2022-12-08T11:06:35.742Z,1.60
2022-12-08T11:09:25.645Z,0.82
2022-12-08T11:11:53.857Z,0.80
2022-12-08T11:14:32.962Z,0.88
2022-12-08T11:17:13.148Z,1.88
2022-12-08T11:19:42.894Z,0.40
2022-12-08T11:22:26.691Z,0.40
2022-12-08T11:25:00.372Z,1.33
2022-12-08T11:27:27.689Z,1.52
2022-12-08T11:29:54.872Z,0.80
2022-12-08T11:32:22.379Z,0.30
2022-12-08T11:35:06.591Z,0.60
2022-12-08T11:37:39.572Z,0.57
2022-12-08T11:40:14.029Z,0.52
2022-12-08T11:43:08.464Z,0.80
2022-12-08T11:45:36.977Z,1.23
2022-12-08T11:48:18.100Z,2.35
2022-12-08T11:50:59.835Z,1.80
2022-12-08T11:53:38.024Z,1.40
2022-12-08T11:56:17.889Z,1.83
2022-12-08T11:58:53.369Z,1.17
2022-12-08T12:01:23.534Z,1.70
2022-12-08T12:04:08.517Z,1.95
2022-12-08T12:06:55.443Z,1.73
2022-12-08T12:09:54.903Z,0.98
2022-12-08T12:12:24.716Z,1.77
2022-12-08T12:15:24.452Z,2.58
2022-12-08T12:17:54.252Z,0.77
2022-12-08T12:20:32.350Z,1.05
2022-12-08T12:23:31.946Z,0.80
2022-12-08T12:26:01.692Z,0.77
2022-12-08T12:28:39.474Z,0.75
2022-12-08T12:31:10.617Z,0.55
2022-12-08T12:33:38.397Z,0.60
2022-12-08T12:36:08.090Z,0.30
2022-12-08T12:39:03.565Z,1.17
2022-12-08T12:41:42.191Z,0.90
2022-12-08T12:44:37.782Z,0.70
2022-12-08T12:47:10.607Z,0.93
2022-12-08T12:49:40.494Z,1.05
2022-12-08T12:52:10.186Z,1.00
2022-12-08T12:54:42.183Z,1.40
2022-12-08T12:57:08.945Z,2.40
2022-12-08T12:59:53.232Z,0.88
2022-12-08T13:02:38.586Z,1.88
2022-12-08T13:05:10.185Z,1.20
2022-12-08T13:07:57.190Z,1.50
2022-12-08T13:10:33.989Z,4.10
2022-12-08T13:13:12.878Z,1.35
2022-12-08T13:15:47.283Z,1.48
2022-12-08T13:18:19.934Z,1.50
2022-12-08T13:20:51.920Z,3.22
2022-12-08T13:23:43.259Z,1.42
2022-12-08T13:26:16.172Z,1.60
2022-12-08T13:29:04.295Z,1.65
2022-12-08T13:31:49.770Z,2.27
2022-12-08T13:34:42.366Z,1.50
2022-12-08T13:37:19.015Z,1.23
2022-12-08T13:39:58.120Z,1.00
2022-12-08T13:42:33.859Z,1.58
2022-12-08T13:45:27.897Z,1.17
2022-12-08T13:49:09.591Z,1.73
2022-12-08T13:57:32.525Z,1.25
2022-12-08T14:00:06.227Z,1.17
2022-12-08T14:02:47.803Z,1.40
2022-12-08T14:05:19.536Z,1.60
2022-12-08T14:07:49.879Z,3.70
2022-12-08T14:10:21.150Z,1.83
2022-12-08T14:12:55.475Z,1.60
2022-12-08T14:15:22.917Z,2.92
2022-12-08T14:17:55.084Z,2.90
2022-12-08T14:20:57.687Z,2.13
2022-12-08T14:23:22.552Z,2.42
2022-12-08T14:25:49.669Z,2.23
2022-12-08T14:28:17.531Z,1.67
2022-12-08T14:30:44.935Z,3.72
2022-12-08T14:33:15.331Z,2.20
2022-12-08T14:35:42.309Z,2.55
2022-12-08T14:38:18.383Z,3.73
2022-12-08T14:41:07.038Z,3.72
2022-12-08T14:43:34.184Z,2.35
2022-12-08T14:46:04.058Z,2.08
2022-12-08T14:48:30.941Z,3.47
2022-12-08T14:51:04.810Z,3.00
2022-12-08T14:53:54.409Z,3.53
2022-12-08T14:56:27.357Z,5.10
2022-12-08T14:59:05.997Z,2.05
2022-12-08T15:01:34.534Z,3.60
2022-12-08T15:04:07.911Z,2.63
2022-12-08T15:06:35.895Z,2.70
2022-12-08T15:09:17.730Z,2.47
2022-12-08T15:11:44.767Z,2.40
2022-12-08T15:14:35.671Z,3.05
2022-12-08T15:17:03.102Z,3.83
2022-12-08T15:19:33.431Z,3.30
2022-12-08T15:22:16.952Z,2.75
2022-12-08T15:24:43.886Z,3.30
2022-12-08T15:27:18.703Z,3.28
2022-12-08T15:29:47.511Z,3.53
2022-12-08T15:32:18.928Z,4.55
2022-12-08T15:34:45.973Z,3.88
2022-12-08T15:37:26.656Z,3.85
2022-12-08T15:39:53.743Z,4.25
2022-12-08T15:42:20.699Z,4.57
2022-12-08T15:44:48.032Z,3.50
2022-12-08T15:47:23.580Z,4.07
2022-12-08T15:49:53.112Z,3.55
2022-12-08T15:52:22.499Z,6.93
2022-12-08T15:54:49.548Z,4.00
2022-12-08T15:57:22.232Z,6.45
2022-12-08T16:00:04.750Z,5.18
2022-12-08T16:02:56.240Z,5.97
2022-12-08T16:05:41.581Z,5.22
2022-12-08T16:08:23.412Z,7.53
2022-12-08T16:11:34.648Z,5.05
2022-12-08T16:14:23.237Z,4.72
2022-12-08T16:16:40.439Z,4.93
2022-12-08T16:19:09.154Z,5.50
2022-12-08T16:24:22.880Z,6.35
2022-12-08T16:29:36.967Z,6.07
2022-12-08T16:32:03.975Z,6.28
2022-12-08T16:34:31.087Z,5.17
2022-12-08T16:36:57.959Z,5.05
2022-12-08T16:39:24.936Z,5.30
2022-12-08T16:42:10.040Z,5.43
2022-12-08T16:44:42.180Z,7.18
2022-12-08T16:47:09.641Z,5.00
2022-12-08T16:49:39.795Z,4.90
2022-12-08T16:52:07.291Z,4.65
2022-12-08T16:54:34.115Z,5.00
2022-12-08T16:57:00.980Z,5.07
2022-12-08T16:59:27.903Z,6.10
2022-12-08T17:01:54.946Z,4.72
2022-12-08T17:04:37.203Z,6.28
2022-12-08T17:07:04.753Z,5.28
2022-12-08T17:09:32.288Z,4.35
2022-12-08T17:12:03.783Z,7.73
2022-12-08T17:14:34.352Z,6.18
2022-12-08T17:17:01.477Z,6.63
2022-12-08T17:19:28.566Z,5.05
2022-12-08T17:21:55.319Z,5.07
2022-12-08T17:24:23.374Z,5.27
2022-12-08T17:26:51.866Z,4.72
2022-12-08T17:29:18.976Z,5.65
2022-12-08T17:31:46.430Z,7.30
2022-12-08T17:34:13.361Z,5.30
2022-12-08T17:36:40.386Z,7.70
2022-12-08T17:39:11.031Z,4.55
2022-12-08T17:41:42.011Z,5.78
2022-12-08T17:44:11.717Z,7.68
2022-12-08T17:46:42.655Z,6.95
2022-12-08T17:49:18.752Z,5.03
2022-12-08T17:51:50.323Z,6.72
2022-12-08T17:54:18.161Z,5.45
2022-12-08T17:56:45.664Z,6.07
2022-12-08T17:59:14.189Z,5.55
2022-12-08T18:01:41.620Z,8.17
2022-12-08T18:04:09.944Z,7.25
2022-12-08T18:06:38.161Z,8.68
2022-12-08T18:09:07.409Z,8.05
2022-12-08T18:11:35.881Z,6.78
2022-12-08T18:14:09.644Z,7.90
2022-12-08T18:16:39.335Z,6.75
2022-12-08T18:19:07.996Z,8.18
2022-12-08T18:21:35.346Z,7.32
2022-12-08T18:24:02.841Z,6.47
2022-12-08T18:26:30.948Z,8.97
2022-12-08T18:28:58.576Z,7.05
2022-12-08T18:31:25.616Z,8.10
2022-12-08T18:33:53.112Z,7.60
2022-12-08T18:36:23.072Z,8.40
2022-12-08T18:38:50.867Z,8.43
2022-12-08T18:41:21.374Z,8.20
2022-12-08T18:43:48.300Z,7.40
2022-12-08T18:46:15.685Z,9.55
2022-12-08T18:48:46.507Z,8.23
2022-12-08T18:51:16.234Z,10.30
2022-12-08T18:53:44.442Z,9.30
2022-12-08T18:56:27.900Z,9.27
2022-12-08T18:59:01.250Z,8.82
2022-12-08T19:01:30.816Z,5.82
2022-12-08T19:04:26.699Z,8.33
2022-12-08T19:06:46.493Z,10.35
2022-12-08T19:09:14.340Z,11.60
2022-12-08T19:11:42.387Z,13.88
2022-12-08T19:14:09.718Z,10.35
2022-12-08T19:16:37.071Z,11.03
2022-12-08T19:19:04.341Z,13.80
2022-12-08T19:21:32.025Z,9.10
2022-12-08T19:24:00.183Z,11.77
2022-12-08T19:26:28.257Z,13.45
2022-12-08T19:28:55.443Z,13.13
2022-12-08T19:31:22.656Z,11.55
2022-12-08T19:33:49.597Z,12.38
2022-12-08T19:36:19.958Z,14.25
2022-12-08T19:39:05.705Z,12.05
2022-12-08T19:41:51.435Z,11.77
2022-12-08T19:44:46.795Z,12.32
2022-12-08T19:47:14.273Z,13.73
2022-12-08T19:49:41.268Z,11.65
2022-12-08T19:52:09.173Z,13.30
2022-12-08T19:54:36.228Z,14.40
2022-12-08T19:57:03.273Z,16.08
2022-12-08T19:59:30.717Z,15.25
2022-12-08T20:01:58.972Z,17.23
2022-12-08T20:04:27.872Z,14.60
2022-12-08T20:06:56.660Z,14.53
2022-12-08T20:09:24.585Z,15.63
2022-12-08T20:11:54.791Z,17.48
2022-12-08T20:14:23.644Z,20.10
2022-12-08T20:16:51.246Z,16.00
2022-12-08T20:19:18.742Z,16.13
2022-12-08T20:21:45.651Z,14.77
2022-12-08T20:24:12.730Z,17.30
2022-12-08T20:26:39.917Z,16.88
2022-12-08T20:29:07.073Z,19.15
2022-12-08T20:31:34.409Z,15.63
2022-12-08T20:34:02.016Z,15.57
2022-12-08T20:36:30.009Z,16.65
2022-12-08T20:38:57.489Z,18.70
2022-12-08T20:41:24.503Z,15.05
2022-12-08T20:43:52.417Z,16.97
2022-12-08T20:46:21.260Z,17.45
2022-12-08T20:48:48.518Z,20.20
2022-12-08T20:51:18.537Z,17.83
2022-12-08T20:53:46.750Z,16.73
2022-12-08T20:56:16.344Z,18.83
2022-12-08T20:58:43.508Z,18.63
2022-12-08T21:01:12.559Z,16.15
2022-12-08T21:03:40.448Z,18.88
2022-12-08T21:06:07.963Z,19.42
2022-12-08T21:08:35.549Z,15.10
2022-12-08T21:11:03.555Z,18.48
2022-12-08T21:13:30.495Z,21.13
2022-12-08T21:15:57.695Z,19.98
2022-12-08T21:18:24.879Z,19.20
2022-12-08T21:20:51.979Z,18.93
2022-12-08T21:23:19.211Z,19.90
2022-12-08T21:25:47.616Z,17.25
2022-12-08T21:28:14.830Z,21.40
2022-12-08T21:30:43.119Z,16.17
2022-12-08T21:33:10.302Z,20.40
2022-12-08T21:35:37.360Z,16.45
2022-12-08T21:38:08.008Z,18.08
2022-12-08T21:40:35.351Z,19.13
2022-12-08T21:43:03.958Z,16.60
2022-12-08T21:45:31.443Z,20.63
2022-12-08T21:48:00.469Z,22.38
2022-12-08T21:50:29.162Z,18.15
2022-12-08T21:52:55.966Z,18.73
2022-12-08T21:55:23.905Z,16.58
2022-12-08T21:57:51.130Z,20.23
2022-12-08T22:00:18.899Z,19.80
2022-12-08T22:02:46.405Z,21.63
2022-12-08T22:05:13.680Z,18.23
2022-12-08T22:07:41.251Z,22.08
2022-12-08T22:10:10.527Z,20.90
2022-12-08T22:12:38.516Z,20.17
2022-12-08T22:15:07.308Z,22.17
2022-12-08T22:17:39.906Z,18.65
2022-12-08T22:20:10.866Z,18.88
2022-12-08T22:22:38.498Z,25.00
2022-12-08T22:25:06.921Z,20.50
2022-12-08T22:27:34.209Z,21.80
2022-12-08T22:30:01.187Z,26.80
2022-12-08T22:32:28.202Z,21.38
2022-12-08T22:34:55.215Z,20.03
2022-12-08T22:37:22.071Z,23.70
2022-12-08T22:39:48.986Z,23.55
2022-12-08T22:42:15.821Z,24.73
2022-12-08T22:44:42.659Z,25.88
2022-12-08T22:47:09.679Z,26.77
2022-12-08T22:49:36.972Z,25.63
2022-12-08T22:52:04.060Z,24.83
2022-12-08T22:54:31.050Z,26.63
2022-12-08T22:56:57.819Z,26.98
2022-12-08T22:59:24.960Z,26.77
2022-12-08T23:01:54.064Z,25.73
2022-12-08T23:04:21.231Z,25.25
2022-12-08T23:06:48.250Z,27.13
2022-12-08T23:09:15.231Z,24.38
2022-12-08T23:11:43.133Z,23.20
2022-12-08T23:14:10.130Z,27.13
2022-12-08T23:16:37.369Z,22.30
2022-12-08T23:19:04.241Z,25.20
2022-12-08T23:21:31.299Z,26.42
2022-12-08T23:24:00.971Z,24.30
2022-12-08T23:26:30.080Z,20.27
2022-12-08T23:28:57.751Z,21.05
2022-12-08T23:31:26.292Z,23.30
2022-12-08T23:33:53.692Z,21.92
2022-12-08T23:36:21.423Z,25.23
2022-12-08T23:38:48.519Z,24.40
2022-12-08T23:41:15.988Z,19.38
2022-12-08T23:43:50.989Z,25.90
2022-12-08T23:46:20.542Z,25.83
2022-12-08T23:48:47.977Z,21.80
2022-12-08T23:51:15.460Z,20.80
2022-12-08T23:53:43.091Z,20.73
2022-12-08T23:56:13.279Z,24.20
2022-12-08T23:58:41.734Z,22.60
